Terminal Aerodrome Forecast
Issued by NWS

Current Version | Previous Version | Text Only | Print | Product List | Glossary On
Versions: 1 2 3 4 5 6 7 8 9 10 11 12 13 14 15 16 17 18
890
FTUS45 KABQ 301139
TAFTCC
TAF
KTCC 301139Z 3012/0112 10005KT P6SM SCT020
      TEMPO 3012/3014 BKN025
     FM301500 06005KT P6SM BKN035
     FM301800 07006KT P6SM BKN050
     FM010000 07015G25KT P6SM OVC050
     FM010400 05022G32KT P6SM VCSH OVC020=

USA.gov is the U.S. government's official web portal to all federal, state and local government web resources and services.